Time;durP1;ratioP1;P1;durP2;ratioP2;P2;SDS_P1;SDS_P2;PMS_P1;PMS_P2;Temp;Humidity;BMP_temperature;BMP_pressure;BME280_temperature;BME280_humidity;BME280_pressure;Samples;Min_cycle;Max_cycle;Signal;HPM_P1;HPM_P2
2020/12/28 00:00:26;;;;;;;15.18;9.18;;;;;;;5.27;72.01;100988.19;1777639;79;21214;-63
2020/12/28 00:02:54;;;;;;;19.02;8.95;;;;;;;5.26;72.07;100979.04;1777860;80;21157;-62
2020/12/28 00:05:23;;;;;;;15.72;9.03;;;;;;;5.28;72.02;100974.28;1774298;79;21114;-62
2020/12/28 00:07:51;;;;;;;14.03;8.90;;;;;;;5.26;72.05;100976.42;1756325;82;21624;-64
2020/12/28 00:10:21;;;;;;;16.12;9.15;;;;;;;5.26;72.21;100969.91;1770777;79;21123;-63
2020/12/28 00:12:49;;;;;;;15.95;9.03;;;;;;;5.24;72.24;100952.03;1806148;79;21104;-64
2020/12/28 00:15:29;;;;;;;20.25;10.03;;;;;;;5.19;72.42;100942.78;1756709;80;21164;-62
2020/12/28 00:20:35;;;;;;;17.48;8.88;;;;;;;5.20;72.66;100938.02;1818368;77;22193;-61
2020/12/28 00:23:02;;;;;;;16.40;8.48;;;;;;;5.09;72.91;100938.23;1770632;80;21589;-61
2020/12/28 00:25:30;;;;;;;17.85;9.78;;;;;;;5.08;73.05;100932.59;1792967;80;21134;-61
2020/12/28 00:27:58;;;;;;;15.03;9.23;;;;;;;5.10;72.96;100925.23;1789943;80;21555;-61
2020/12/28 00:30:25;;;;;;;17.77;9.60;;;;;;;5.06;73.12;100915.59;1792294;80;21111;-62
2020/12/28 00:32:53;;;;;;;13.85;8.75;;;;;;;5.04;73.28;100919.48;1768114;80;21158;-60
2020/12/28 00:35:20;;;;;;;22.05;10.93;;;;;;;5.09;73.24;100929.09;1753664;82;21581;-61
2020/12/28 00:37:51;;;;;;;16.62;10.08;;;;;;;5.07;73.28;100922.56;1767224;80;21102;-60
2020/12/28 00:40:18;;;;;;;21.15;11.25;;;;;;;5.09;73.21;100920.86;1768449;80;21138;-63
2020/12/28 00:42:48;;;;;;;20.57;11.00;;;;;;;5.14;73.24;100919.63;1758784;80;21300;-61
2020/12/28 00:45:17;;;;;;;18.42;9.80;;;;;;;5.12;73.32;100913.09;1777552;81;21124;-62
2020/12/28 00:47:45;;;;;;;19.05;11.15;;;;;;;5.11;73.46;100912.64;1767965;80;21606;-62
2020/12/28 00:50:12;;;;;;;20.75;10.93;;;;;;;5.09;73.55;100906.92;1758126;80;21172;-62
2020/12/28 00:52:40;;;;;;;19.52;10.80;;;;;;;5.09;73.65;100903.91;1777650;80;21159;-63
2020/12/28 00:55:08;;;;;;;17.92;10.05;;;;;;;5.17;73.46;100898.81;1779010;80;21179;-62
2020/12/28 00:57:36;;;;;;;18.75;10.30;;;;;;;5.21;73.37;100900.22;1793669;80;21430;-61
2020/12/28 01:00:05;;;;;;;20.32;10.32;;;;;;;5.21;73.32;100900.22;1782806;80;21138;-63
2020/12/28 01:02:42;;;;;;;21.20;11.12;;;;;;;5.20;73.42;100897.56;1795583;80;21142;-64
2020/12/28 01:05:11;;;;;;;22.17;11.40;;;;;;;5.14;74.41;100893.12;1790102;80;21126;-64
2020/12/28 01:07:40;;;;;;;19.15;11.25;;;;;;;5.18;73.69;100900.16;1787943;80;21163;-65
2020/12/28 01:10:16;;;;;;;20.10;11.73;;;;;;;5.41;73.13;100888.37;1824169;77;22178;-61
2020/12/28 01:12:45;;;;;;;17.52;10.53;;;;;;;5.27;73.38;100900.75;1761914;81;21285;-62
2020/12/28 01:15:13;;;;;;;17.45;11.12;;;;;;;5.27;73.49;100905.11;1741569;81;21169;-62
2020/12/28 01:17:42;;;;;;;20.82;11.50;;;;;;;5.28;73.52;100902.95;1731966;81;21280;-64
2020/12/28 01:20:11;;;;;;;19.32;11.33;;;;;;;5.26;73.60;100892.46;1722797;83;21175;-63
2020/12/28 01:22:39;;;;;;;22.67;12.80;;;;;;;5.26;73.53;100884.63;1698219;84;21918;-63
2020/12/28 01:25:06;;;;;;;22.40;11.53;;;;;;;5.24;73.83;100873.73;1721772;83;21150;-62
2020/12/28 01:27:36;;;;;;;19.32;11.80;;;;;;;5.25;73.78;100851.99;1724950;83;21151;-63
2020/12/28 01:30:03;;;;;;;23.25;12.00;;;;;;;5.26;73.81;100840.70;1729500;83;21166;-62
2020/12/28 01:32:32;;;;;;;22.58;12.65;;;;;;;5.25;73.96;100828.06;1720824;83;21168;-63
2020/12/28 01:35:08;;;;;;;23.05;13.38;;;;;;;5.27;74.01;100827.66;1831612;77;22700;-60
2020/12/28 01:37:36;;;;;;;19.95;11.83;;;;;;;5.21;74.08;100833.67;1717077;83;21102;-61
2020/12/28 01:40:04;;;;;;;19.92;12.43;;;;;;;5.19;74.39;100837.98;1717629;82;21127;-62
2020/12/28 01:42:32;;;;;;;22.55;12.40;;;;;;;5.20;74.25;100822.78;1719100;82;21159;-61
2020/12/28 01:44:59;;;;;;;23.62;11.83;;;;;;;5.19;74.48;100810.99;1727323;82;21142;-62
2020/12/28 01:47:27;;;;;;;24.55;12.00;;;;;;;5.16;74.74;100807.02;1726072;82;21601;-62
2020/12/28 01:49:56;;;;;;;21.80;13.10;;;;;;;5.17;74.61;100803.16;1733166;82;21138;-61
2020/12/28 01:52:24;;;;;;;24.47;13.10;;;;;;;5.19;74.53;100804.47;1729764;81;21131;-61
2020/12/28 01:54:53;;;;;;;25.60;13.13;;;;;;;5.21;74.63;100806.27;1725625;83;21200;-64
2020/12/28 01:57:22;;;;;;;29.07;15.15;;;;;;;5.26;74.48;100804.16;1727052;82;21179;-63
2020/12/28 01:59:51;;;;;;;25.77;14.55;;;;;;;5.23;74.67;100806.72;1723293;83;21157;-62
2020/12/28 02:02:21;;;;;;;23.07;13.35;;;;;;;5.17;74.72;100795.32;1713141;84;21163;-63
2020/12/28 02:04:49;;;;;;;24.23;13.85;;;;;;;5.14;74.90;100795.68;1727787;82;21155;-63
2020/12/28 02:07:18;;;;;;;22.32;14.10;;;;;;;5.16;74.82;100802.70;1747256;82;21136;-63
2020/12/28 02:09:46;;;;;;;23.83;15.10;;;;;;;5.19;74.81;100798.84;1727803;83;21158;-63
2020/12/28 02:12:14;;;;;;;21.37;13.65;;;;;;;5.20;74.86;100798.39;1744238;82;21200;-62
2020/12/28 02:14:42;;;;;;;23.15;14.10;;;;;;;5.21;74.93;100800.16;1725980;83;21149;-63
2020/12/28 02:17:21;;;;;;;31.80;15.30;;;;;;;5.22;74.87;100805.83;1736714;82;21183;-62
2020/12/28 02:19:51;;;;;;;28.05;15.32;;;;;;;5.20;74.99;100797.98;1689599;82;21312;-62
2020/12/28 02:22:19;;;;;;;30.80;15.40;;;;;;;5.19;75.05;100787.09;1671431;84;21157;-62
2020/12/28 02:24:49;;;;;;;25.17;14.47;;;;;;;5.18;75.20;100772.29;1715381;83;21323;-62
2020/12/28 02:27:16;;;;;;;25.25;13.58;;;;;;;5.19;75.27;100751.86;1720962;82;21155;-64
2020/12/28 02:29:44;;;;;;;27.02;14.53;;;;;;;5.21;75.30;100742.73;1741379;82;21594;-62
2020/12/28 02:32:13;;;;;;;25.48;14.75;;;;;;;5.26;75.25;100731.08;1743279;82;21162;-64
2020/12/28 02:34:48;;;;;;;42.43;24.82;;;;;;;5.24;75.52;100721.05;1792019;77;28266;-61
2020/12/28 02:37:24;;;;;;;30.62;18.02;;;;;;;5.26;75.48;100724.56;1737969;81;21162;-63
2020/12/28 02:39:59;;;;;;;45.90;26.65;;;;;;;5.34;75.36;100719.89;1811704;77;28503;-62
2020/12/28 02:42:29;;;;;;;36.35;20.30;;;;;;;5.37;75.24;100721.66;1760706;81;21127;-62
2020/12/28 02:45:15;;;;;;;28.15;16.67;;;;;;;5.42;75.18;100719.13;1755486;81;21150;-62
2020/12/28 02:48:01;;;;;;;27.85;16.02;;;;;;;5.43;75.19;100713.05;1761967;81;21744;-62
2020/12/28 02:50:47;;;;;;;28.87;16.15;;;;;;;5.42;75.28;100708.25;1762045;81;21288;-63
2020/12/28 02:53:33;;;;;;;29.82;17.27;;;;;;;5.42;75.39;100722.60;1732663;81;21604;-63
2020/12/28 02:56:19;;;;;;;30.02;17.27;;;;;;;5.42;75.41;100729.13;1752198;81;21183;-63
2020/12/28 02:58:57;;;;;;;27.20;16.97;;;;;;;5.44;75.54;100722.20;1820856;77;22120;-60
2020/12/28 03:01:36;;;;;;;24.67;15.28;;;;;;;5.42;75.57;100713.91;1738266;80;21142;-62
2020/12/28 03:04:20;;;;;;;24.37;16.23;;;;;;;5.43;75.61;100700.86;1789697;80;21122;-62
2020/12/28 03:07:08;;;;;;;34.75;17.17;;;;;;;5.42;75.77;100702.16;1795966;80;21299;-61
2020/12/28 03:09:54;;;;;;;33.00;18.55;;;;;;;5.46;75.74;100706.12;1795828;80;21150;-62
2020/12/28 03:12:41;;;;;;;25.90;15.98;;;;;;;5.44;75.86;100720.89;1789390;80;21133;-63
2020/12/28 03:15:27;;;;;;;26.62;17.12;;;;;;;5.46;75.77;100711.80;1764799;81;21161;-63
2020/12/28 03:18:14;;;;;;;27.55;16.02;;;;;;;5.47;75.75;100714.41;1779689;80;21146;-62
2020/12/28 03:21:01;;;;;;;28.60;18.00;;;;;;;5.46;75.87;100720.48;1795037;80;21173;-63
2020/12/28 03:23:47;;;;;;;19.45;13.95;;;;;;;5.45;75.85;100718.73;1785922;80;21137;-62
2020/12/28 03:26:32;;;;;;;26.02;16.12;;;;;;;5.46;75.87;100718.33;1791220;80;21600;-64
2020/12/28 03:29:20;;;;;;;25.30;15.38;;;;;;;5.49;75.76;100720.53;1795411;80;21562;-62
2020/12/28 03:32:06;;;;;;;29.07;17.77;;;;;;;5.51;75.73;100720.58;1787974;80;21574;-62
2020/12/28 03:34:52;;;;;;;26.65;17.45;;;;;;;5.49;75.84;100724.89;1791365;80;21142;-63
2020/12/28 03:37:38;;;;;;;31.45;17.95;;;;;;;5.50;75.85;100731.87;1792399;80;21145;-64
2020/12/28 03:40:24;;;;;;;26.80;16.75;;;;;;;5.42;76.10;100734.80;1789858;80;21145;-63
2020/12/28 03:43:02;;;;;;;27.58;16.00;;;;;;;5.47;76.12;100721.38;1833957;77;22571;-61
2020/12/28 03:45:48;;;;;;;27.40;16.65;;;;;;;5.43;76.23;100720.89;1778971;80;21166;-62
2020/12/28 03:48:35;;;;;;;23.85;15.65;;;;;;;5.43;76.39;100715.22;1738389;81;21151;-63
2020/12/28 03:51:21;;;;;;;22.73;15.80;;;;;;;5.41;76.46;100713.02;1761864;81;21577;-61
2020/12/28 03:54:07;;;;;;;20.60;15.50;;;;;;;5.40;76.50;100707.34;1758043;81;21537;-63
2020/12/28 03:57:00;;;;;;;24.70;15.25;;;;;;;5.46;76.60;100710.05;1823790;77;22163;-61
2020/12/28 03:59:46;;;;;;;20.92;15.43;;;;;;;5.37;76.80;100709.91;1763528;80;21636;-62
2020/12/28 04:02:32;;;;;;;22.13;13.98;;;;;;;5.39;76.79;100709.95;1760200;81;21598;-63
2020/12/28 04:05:18;;;;;;;23.90;14.13;;;;;;;5.35;76.97;100700.77;1775037;80;21115;-62
2020/12/28 04:08:06;;;;;;;21.75;12.58;;;;;;;5.36;77.05;100697.71;1770606;80;21142;-61
2020/12/28 04:10:52;;;;;;;20.70;12.35;;;;;;;5.38;77.09;100697.31;1767800;80;21090;-63
2020/12/28 04:13:28;;;;;;;28.93;22.57;;;;;;;5.39;77.29;100697.75;1826474;77;28492;-62
2020/12/28 04:15:59;;;;;;;21.82;15.60;;;;;;;5.38;77.19;100701.66;1793381;80;21192;-61
2020/12/28 04:18:26;;;;;;;21.48;14.47;;;;;;;5.40;77.20;100692.98;1767819;80;21558;-62
2020/12/28 04:20:54;;;;;;;22.10;12.98;;;;;;;5.42;77.16;100696.50;1761863;81;21317;-62
2020/12/28 04:23:21;;;;;;;20.68;12.98;;;;;;;5.47;77.20;100695.27;1775973;80;21166;-63
2020/12/28 04:25:49;;;;;;;16.73;11.95;;;;;;;5.47;77.12;100690.05;1793884;80;21178;-65
2020/12/28 04:28:17;;;;;;;18.35;13.00;;;;;;;5.49;77.09;100686.59;1793268;80;21166;-62
2020/12/28 04:30:44;;;;;;;17.95;12.15;;;;;;;5.50;77.03;100684.87;1761836;80;21659;-62
2020/12/28 04:33:12;;;;;;;18.70;10.82;;;;;;;5.48;77.09;100674.39;1785740;80;21142;-62
2020/12/28 04:35:40;;;;;;;19.55;12.18;;;;;;;5.49;77.11;100676.15;1786649;80;21566;-63
2020/12/28 04:38:08;;;;;;;18.27;11.70;;;;;;;5.50;77.12;100674.44;1792975;80;21685;-62
2020/12/28 04:40:35;;;;;;;17.80;12.37;;;;;;;5.49;77.06;100679.20;1766176;80;21567;-63
2020/12/28 04:43:03;;;;;;;18.75;12.30;;;;;;;5.50;77.04;100689.66;1700233;83;21221;-64
2020/12/28 04:45:31;;;;;;;22.48;12.28;;;;;;;5.54;76.95;100693.17;1732653;82;21147;-62
2020/12/28 04:47:58;;;;;;;19.70;11.65;;;;;;;5.52;77.14;100689.66;1728474;82;21303;-64
2020/12/28 04:50:26;;;;;;;20.77;11.63;;;;;;;5.57;76.95;100685.82;1723764;83;21619;-64
2020/12/28 04:52:53;;;;;;;16.27;11.03;;;;;;;5.55;77.13;100685.78;1722944;83;21183;-64
2020/12/28 04:55:21;;;;;;;20.57;12.10;;;;;;;5.59;76.94;100686.28;1730090;81;21142;-63
2020/12/28 04:57:48;;;;;;;19.10;11.22;;;;;;;5.62;76.92;100673.70;1696012;84;21178;-62
2020/12/28 05:00:17;;;;;;;15.35;12.25;;;;;;;5.60;77.12;100665.84;1714124;83;21166;-63
2020/12/28 05:02:46;;;;;;;18.32;11.40;;;;;;;5.63;76.96;100665.02;1709681;83;21181;-64
2020/12/28 05:05:14;;;;;;;17.20;11.85;;;;;;;5.62;76.94;100664.13;1733232;81;21177;-63
2020/12/28 05:07:49;;;;;;;17.77;12.18;;;;;;;5.65;76.93;100668.53;1724873;83;21226;-62
2020/12/28 05:10:26;;;;;;;23.07;12.73;;;;;;;5.70;76.96;100658.13;1822088;77;22621;-61
2020/12/28 05:12:54;;;;;;;17.67;12.23;;;;;;;5.65;77.02;100656.33;1756702;81;21111;-62
2020/12/28 05:15:22;;;;;;;18.27;12.00;;;;;;;5.66;77.02;100662.00;1761896;81;21183;-61
2020/12/28 05:17:54;;;;;;;21.77;13.08;;;;;;;5.63;77.17;100664.57;1761176;81;21155;-61
2020/12/28 05:20:24;;;;;;;19.62;13.18;;;;;;;5.68;77.00;100652.00;1755359;80;21115;-63
2020/12/28 05:22:54;;;;;;;21.80;12.75;;;;;;;5.70;77.04;100660.32;1762145;81;21139;-64
2020/12/28 05:25:26;;;;;;;22.25;13.95;;;;;;;5.80;76.62;100665.22;1762009;80;21154;-63
2020/12/28 05:27:55;;;;;;;19.15;13.48;;;;;;;5.70;76.96;100664.66;1742292;81;21111;-63
2020/12/28 05:30:24;;;;;;;20.00;13.85;;;;;;;5.66;77.11;100659.39;1755380;80;21590;-62
2020/12/28 05:32:51;;;;;;;24.52;14.55;;;;;;;6.25;75.66;100650.94;1713678;83;21142;-65
2020/12/28 05:35:19;;;;;;;24.87;15.38;;;;;;;5.69;77.05;100649.42;1731837;81;21174;-63
2020/12/28 05:37:46;;;;;;;21.23;15.03;;;;;;;5.59;77.43;100651.47;1731660;82;21617;-64
2020/12/28 05:40:14;;;;;;;22.60;15.03;;;;;;;5.55;77.67;100651.84;1739181;81;21162;-63
2020/12/28 05:42:51;;;;;;;23.62;15.68;;;;;;;5.59;77.64;100651.47;1732206;83;21202;-64
2020/12/28 05:45:19;;;;;;;22.22;16.05;;;;;;;5.53;77.81;100658.77;1736134;80;21166;-64
2020/12/28 05:47:58;;;;;;;25.80;17.45;;;;;;;5.56;77.78;100660.56;1750869;81;21114;-64
2020/12/28 05:50:32;;;;;;;25.30;16.55;;;;;;;5.57;77.84;100670.16;1761995;80;21188;-63
2020/12/28 05:53:01;;;;;;;24.50;16.27;;;;;;;5.55;77.87;100672.73;1762081;81;21153;-64
2020/12/28 05:55:31;;;;;;;22.20;15.40;;;;;;;5.58;77.82;100675.38;1749626;81;21178;-66
2020/12/28 05:57:59;;;;;;;28.15;17.10;;;;;;;5.59;77.91;100680.19;1759781;81;21092;-64
2020/12/28 06:00:27;;;;;;;27.32;17.10;;;;;;;5.59;77.99;100688.89;1762051;80;21265;-64
2020/12/28 06:02:54;;;;;;;28.27;17.50;;;;;;;5.63;78.09;100696.35;1761808;81;21131;-65
2020/12/28 06:05:21;;;;;;;27.00;17.55;;;;;;;5.62;78.15;100696.77;1760911;80;21629;-65
2020/12/28 06:07:49;;;;;;;31.35;17.70;;;;;;;5.63;78.11;100698.52;1756850;81;21258;-66
2020/12/28 06:10:19;;;;;;;26.30;16.67;;;;;;;5.67;78.08;100696.84;1714492;82;21151;-66
2020/12/28 06:12:52;;;;;;;;;;;;;;;5.75;77.83;100693.02;1741088;82;21163;-66
2020/12/28 06:15:19;;;;;;;24.77;16.50;;;;;;;5.77;77.82;100693.47;1749229;81;20192;-64
2020/12/28 06:17:47;;;;;;;24.90;15.90;;;;;;;5.75;77.89;100686.48;1726834;82;21606;-65
2020/12/28 06:20:15;;;;;;;27.17;16.27;;;;;;;5.79;77.86;100689.59;1727520;82;21150;-63
2020/12/28 06:22:45;;;;;;;24.23;16.93;;;;;;;5.75;78.02;100687.79;1741947;82;21146;-64
2020/12/28 06:25:18;;;;;;;28.47;18.17;;;;;;;5.74;78.09;100686.03;1732370;82;21166;-64
2020/12/28 06:27:46;;;;;;;28.98;17.95;;;;;;;5.83;77.81;100682.65;1752701;82;21147;-63
2020/12/28 06:30:16;;;;;;;24.50;17.30;;;;;;;5.86;77.73;100684.00;1756377;82;21285;-63
2020/12/28 06:32:47;;;;;;;;;;;;;;;5.83;77.93;100691.80;1757661;82;21100;-62
2020/12/28 06:35:16;;;;;;;26.25;15.58;;;;;;;5.74;78.31;100703.88;1752098;80;20250;-63
2020/12/28 06:37:53;;;;;;;27.13;16.93;;;;;;;5.78;78.18;100703.50;1756509;82;21131;-62
2020/12/28 06:40:34;;;;;;;24.80;16.67;;;;;;;5.81;78.06;100698.32;1736453;82;21160;-64
2020/12/28 06:43:13;;;;;;;26.95;17.48;;;;;;;5.80;78.12;100689.59;1748736;82;21138;-64
2020/12/28 06:45:45;;;;;;;27.90;17.75;;;;;;;5.91;77.85;100679.29;1756369;80;21273;-64
2020/12/28 06:48:25;;;;;;;27.10;18.27;;;;;;;6.00;77.75;100661.56;1756327;81;21115;-63
2020/12/28 06:51:00;;;;;;;27.42;17.35;;;;;;;6.03;77.64;100672.05;1754203;82;21172;-63
2020/12/28 06:53:28;;;;;;;26.85;17.87;;;;;;;6.04;77.71;100670.30;1754394;81;21158;-62
2020/12/28 06:56:08;;;;;;;25.77;17.23;;;;;;;6.07;77.67;100666.41;1754480;82;21320;-61
2020/12/28 06:58:36;;;;;;;25.37;17.12;;;;;;;6.18;77.45;100663.48;1744738;82;21114;-63
2020/12/28 07:01:05;;;;;;;28.83;18.48;;;;;;;6.18;77.41;100660.02;1749143;82;21155;-62
2020/12/28 07:03:33;;;;;;;28.60;17.92;;;;;;;6.09;77.72;100642.48;1755795;82;21127;-65
2020/12/28 07:06:02;;;;;;;24.45;16.35;;;;;;;6.04;78.02;100644.16;1756413;80;21151;-65
2020/12/28 07:08:32;;;;;;;25.72;16.37;;;;;;;6.07;77.83;100641.58;1755025;81;21606;-65
2020/12/28 07:11:03;;;;;;;24.72;16.00;;;;;;;6.02;78.02;100629.79;1750064;82;21273;-66
2020/12/28 07:13:31;;;;;;;26.27;16.65;;;;;;;6.11;77.84;100625.08;1756361;82;21582;-64
2020/12/28 07:16:08;;;;;;;23.98;16.60;;;;;;;6.15;77.70;100620.33;1756080;80;21166;-65
2020/12/28 07:18:36;;;;;;;25.08;15.48;;;;;;;6.09;77.98;100627.69;1748819;82;21119;-62
2020/12/28 07:21:04;;;;;;;23.35;15.45;;;;;;;6.12;77.92;100628.14;1754607;80;21204;-63
2020/12/28 07:23:33;;;;;;;27.58;17.65;;;;;;;6.15;77.90;100624.70;1756025;82;21293;-63
2020/12/28 07:26:09;;;;;;;21.15;14.90;;;;;;;6.18;77.86;100624.73;1755182;82;21119;-63
2020/12/28 07:28:40;;;;;;;22.75;16.32;;;;;;;6.16;77.91;100625.14;1747429;82;21531;-64
2020/12/28 07:31:08;;;;;;;26.80;15.78;;;;;;;6.17;77.98;100624.28;1737299;82;21692;-64
2020/12/28 07:33:57;;;;;;;23.45;16.95;;;;;;;6.18;77.98;100624.28;1749256;82;21260;-64
2020/12/28 07:36:25;;;;;;;24.27;16.70;;;;;;;6.20;77.98;100615.13;1766623;81;21155;-64
2020/12/28 07:38:55;;;;;;;22.55;15.45;;;;;;;6.25;77.88;100623.90;1722812;81;21157;-64
2020/12/28 07:41:26;;;;;;;24.15;14.25;;;;;;;6.25;77.96;100628.72;1761392;81;21167;-64
2020/12/28 07:43:57;;;;;;;18.40;12.55;;;;;;;6.23;78.07;100636.97;1766538;80;21123;-64
2020/12/28 07:46:59;;;;;;;23.52;13.93;;;;;;;6.18;78.45;100633.87;1779881;80;21138;-64
2020/12/28 07:49:28;;;;;;;21.73;14.98;;;;;;;6.24;78.12;100633.91;1798461;80;21542;-63
2020/12/28 07:52:22;;;;;;;20.65;14.55;;;;;;;6.23;78.23;100616.47;1751722;82;21146;-62
2020/12/28 07:55:04;;;;;;;20.20;13.50;;;;;;;6.22;78.34;100611.69;1749900;82;21139;-63
2020/12/28 07:57:40;;;;;;;28.85;15.72;;;;;;;6.23;78.38;100609.94;1778674;80;21142;-64
2020/12/28 08:00:08;;;;;;;21.35;13.95;;;;;;;6.26;78.35;100608.66;1757674;79;21175;-64
2020/12/28 08:02:56;;;;;;;18.82;13.55;;;;;;;6.29;78.30;100599.55;1753495;81;21183;-65
2020/12/28 08:05:24;;;;;;;20.37;14.45;;;;;;;6.34;78.19;100597.84;1753143;81;21595;-64
2020/12/28 08:07:52;;;;;;;17.52;13.08;;;;;;;6.39;78.08;100598.77;1766704;81;21158;-64
2020/12/28 08:10:19;;;;;;;18.30;12.45;;;;;;;6.39;78.16;100600.52;1766693;81;21163;-64
2020/12/28 08:12:53;;;;;;;18.85;13.68;;;;;;;6.35;78.36;100594.38;1781336;80;21137;-64
2020/12/28 08:15:32;;;;;;;19.77;12.80;;;;;;;6.39;78.22;100592.67;1783278;80;21195;-64
2020/12/28 08:18:09;;;;;;;18.05;12.55;;;;;;;6.39;78.22;100582.22;1765920;80;21116;-65
2020/12/28 08:20:38;;;;;;;19.92;13.18;;;;;;;6.38;78.27;100576.09;1777353;80;21182;-64
2020/12/28 08:23:06;;;;;;;18.45;11.85;;;;;;;6.42;78.17;100575.67;1753603;81;21565;-64
2020/12/28 08:25:36;;;;;;;19.37;13.50;;;;;;;6.46;78.07;100581.83;1738474;80;21654;-64
2020/12/28 08:28:04;;;;;;;18.27;11.68;;;;;;;6.47;78.07;100589.66;1736112;81;21319;-64
2020/12/28 08:30:32;;;;;;;19.92;12.28;;;;;;;6.52;77.99;100594.95;1735815;83;21577;-65
2020/12/28 08:33:01;;;;;;;20.37;13.55;;;;;;;6.55;77.90;100598.91;1735363;83;21152;-65
2020/12/28 08:38:05;;;;;;;24.82;19.27;;;;;;;6.90;76.98;100574.72;1837349;77;28045;-64
2020/12/28 08:40:33;;;;;;;19.42;13.78;;;;;;;6.64;77.59;100571.48;1782648;78;21155;-64
2020/12/28 08:43:02;;;;;;;20.40;12.85;;;;;;;7.05;76.91;100571.30;1755994;82;21142;-66
2020/12/28 08:45:31;;;;;;;23.30;11.57;;;;;;;7.02;76.60;100556.03;1755861;82;21154;-64
2020/12/28 08:47:59;;;;;;;22.65;11.95;;;;;;;6.73;77.54;100540.61;1756311;80;21162;-63
2020/12/28 08:50:35;;;;;;;16.62;12.03;;;;;;;6.73;77.75;100534.48;1787284;79;21110;-63
2020/12/28 08:53:05;;;;;;;19.37;11.85;;;;;;;6.77;77.66;100548.03;1790834;79;21284;-64
2020/12/28 08:55:34;;;;;;;17.40;11.93;;;;;;;6.75;77.66;100557.19;1787688;79;21168;-66
2020/12/28 08:58:02;;;;;;;20.02;11.18;;;;;;;6.66;77.88;100565.83;1783744;79;21597;-65
2020/12/28 09:00:29;;;;;;;21.12;13.25;;;;;;;6.64;77.99;100566.25;1791691;79;21625;-66
2020/12/28 09:02:58;;;;;;;19.30;12.80;;;;;;;6.70;77.77;100570.67;1798191;80;21150;-66
2020/12/28 09:05:30;;;;;;;17.25;11.25;;;;;;;6.60;78.19;100570.16;1777848;81;21162;-65
2020/12/28 09:07:58;;;;;;;18.10;11.60;;;;;;;6.65;78.07;100588.92;1778200;79;21174;-66
2020/12/28 09:10:26;;;;;;;22.27;11.90;;;;;;;6.66;77.98;100562.35;1701789;84;21636;-65
2020/12/28 09:12:54;;;;;;;19.20;11.18;;;;;;;6.60;78.82;100546.20;1726591;82;21301;-65
2020/12/28 09:15:22;;;;;;;16.75;10.63;;;;;;;6.61;78.81;100583.67;1733855;83;21554;-65
2020/12/28 09:17:49;;;;;;;17.50;12.25;;;;;;;6.55;78.95;100582.76;1723059;82;21166;-66
2020/12/28 09:20:17;;;;;;;18.55;11.68;;;;;;;6.80;78.24;100566.36;1739658;82;21595;-65
2020/12/28 09:22:45;;;;;;;16.45;10.78;;;;;;;7.19;76.19;100562.20;1722473;83;21623;-65
2020/12/28 09:25:14;;;;;;;15.75;10.98;;;;;;;6.67;78.27;100568.03;1723071;83;21200;-66
2020/12/28 09:27:42;;;;;;;20.57;12.05;;;;;;;6.62;78.59;100572.34;1722630;83;21622;-66
2020/12/28 09:30:10;;;;;;;16.93;11.48;;;;;;;6.54;78.86;100571.85;1722807;83;21329;-67
2020/12/28 09:32:40;;;;;;;15.65;11.03;;;;;;;6.57;78.89;100570.13;1734385;82;21175;-66
2020/12/28 09:35:07;;;;;;;16.95;11.38;;;;;;;6.62;78.77;100564.09;1730687;83;21178;-66
2020/12/28 09:37:37;;;;;;;18.92;11.25;;;;;;;6.61;78.90;100554.91;1752553;82;21170;-64
2020/12/28 09:40:05;;;;;;;17.10;11.12;;;;;;;6.62;78.91;100539.23;1804226;79;21616;-65
2020/12/28 09:42:33;;;;;;;17.55;11.55;;;;;;;6.64;78.93;100532.70;1707989;83;21306;-66
2020/12/28 09:45:00;;;;;;;18.17;11.65;;;;;;;6.67;78.88;100515.27;1786771;79;21188;-65
2020/12/28 09:47:28;;;;;;;16.45;11.03;;;;;;;6.69;78.93;100510.92;1790193;79;21143;-65
2020/12/28 09:49:55;;;;;;;15.23;10.45;;;;;;;6.71;78.95;100512.25;1771154;80;21587;-66
2020/12/28 09:52:24;;;;;;;17.10;10.65;;;;;;;6.75;78.88;100508.80;1753142;82;21182;-66
2020/12/28 09:54:52;;;;;;;15.85;10.80;;;;;;;6.87;78.61;100505.77;1784753;79;21281;-67
2020/12/28 09:57:19;;;;;;;19.90;10.53;;;;;;;6.88;78.61;100497.05;1791934;79;21186;-67
2020/12/28 09:59:48;;;;;;;15.23;10.23;;;;;;;6.88;78.69;100477.02;1771761;81;21260;-65
2020/12/28 10:02:17;;;;;;;14.38;9.88;;;;;;;6.95;78.49;100480.11;1772099;80;21147;-68
2020/12/28 10:04:45;;;;;;;15.63;10.28;;;;;;;6.95;78.47;100468.75;1772077;81;21555;-66
2020/12/28 10:07:12;;;;;;;16.45;9.58;;;;;;;6.98;78.52;100460.91;1783113;80;21163;-66
2020/12/28 10:09:40;;;;;;;14.78;9.68;;;;;;;7.01;78.61;100462.69;1792702;80;21307;-66
2020/12/28 10:12:10;;;;;;;17.12;10.63;;;;;;;6.95;79.17;100484.45;1793083;79;21135;-66
2020/12/28 10:14:46;;;;;;;16.73;11.05;;;;;;;6.95;78.89;100479.21;1792618;79;21650;-66
2020/12/28 10:17:15;;;;;;;20.70;11.15;;;;;;;6.98;78.88;100465.73;1790816;79;21206;-65
2020/12/28 10:19:44;;;;;;;15.18;10.23;;;;;;;6.99;78.93;100448.27;1792859;80;21171;-64
2020/12/28 10:22:13;;;;;;;13.55;9.48;;;;;;;6.97;79.09;100446.08;1793103;79;21562;-65
2020/12/28 10:24:41;;;;;;;16.02;11.08;;;;;;;7.02;79.06;100448.73;1781419;79;21594;-67
2020/12/28 10:27:09;;;;;;;18.70;9.38;;;;;;;7.02;79.08;100452.20;1772013;79;21668;-67
2020/12/28 10:29:36;;;;;;;16.65;8.90;;;;;;;7.03;79.05;100455.72;1771700;81;21567;-66
2020/12/28 10:32:04;;;;;;;15.25;9.05;;;;;;;6.93;79.32;100472.69;1789708;79;21641;-66
2020/12/28 10:34:31;;;;;;;14.75;9.90;;;;;;;6.92;79.27;100467.00;1793195;80;21115;-65
2020/12/28 10:36:59;;;;;;;18.37;10.00;;;;;;;6.92;79.30;100442.15;1774417;79;21568;-66
2020/12/28 10:39:27;;;;;;;14.50;9.75;;;;;;;6.98;79.22;100442.59;1763626;81;21285;-65
2020/12/28 10:41:55;;;;;;;15.75;10.28;;;;;;;7.00;79.14;100444.78;1763614;81;21186;-65
2020/12/28 10:44:23;;;;;;;17.10;10.25;;;;;;;7.01;79.09;100438.68;1724442;82;21124;-65
2020/12/28 10:46:51;;;;;;;14.13;9.60;;;;;;;6.99;79.16;100428.64;1794887;80;21104;-65
2020/12/28 10:49:19;;;;;;;13.60;9.18;;;;;;;7.07;78.96;100432.16;1714549;84;21678;-66
2020/12/28 10:51:46;;;;;;;13.32;9.03;;;;;;;7.08;78.87;100439.56;1795042;80;21148;-65
2020/12/28 10:54:14;;;;;;;12.93;8.58;;;;;;;7.08;78.88;100437.83;1711750;83;21622;-66
2020/12/28 10:56:41;;;;;;;15.75;9.78;;;;;;;7.13;78.91;100437.42;1769859;80;21317;-66
2020/12/28 10:59:11;;;;;;;14.28;9.15;;;;;;;7.12;78.98;100438.28;1707137;84;21151;-66
2020/12/28 11:01:38;;;;;;;15.08;9.30;;;;;;;7.16;78.80;100435.23;1776181;80;21539;-66
2020/12/28 11:04:06;;;;;;;14.47;9.28;;;;;;;7.21;78.76;100431.33;1763907;80;21112;-67
2020/12/28 11:06:34;;;;;;;16.32;10.08;;;;;;;7.23;78.65;100423.91;1763622;81;21173;-65
2020/12/28 11:09:03;;;;;;;14.85;10.58;;;;;;;7.25;78.61;100432.64;1721010;81;21139;-66
2020/12/28 11:11:30;;;;;;;14.60;10.15;;;;;;;7.28;78.46;100422.63;1763753;81;21771;-66
2020/12/28 11:13:58;;;;;;;16.50;10.65;;;;;;;7.26;78.64;100425.22;1765341;80;21148;-66
2020/12/28 11:16:26;;;;;;;13.65;9.93;;;;;;;7.27;78.66;100415.64;1764709;80;21277;-66
2020/12/28 11:18:55;;;;;;;14.73;9.80;;;;;;;7.29;78.62;100419.11;1763824;81;21155;-68
2020/12/28 11:21:24;;;;;;;16.25;11.33;;;;;;;7.27;78.68;100425.66;1685939;84;21178;-67
2020/12/28 11:24:01;;;;;;;16.20;9.58;;;;;;;7.27;78.77;100421.73;1780973;80;21120;-67
2020/12/28 11:26:33;;;;;;;16.25;10.53;;;;;;;7.30;78.85;100419.55;1763588;81;21199;-66
2020/12/28 11:29:04;;;;;;;15.65;9.83;;;;;;;7.35;78.82;100410.41;1763739;81;21294;-66
2020/12/28 11:31:32;;;;;;;17.77;11.85;;;;;;;7.43;78.74;100407.37;1763556;81;21151;-66
2020/12/28 11:34:00;;;;;;;15.65;10.98;;;;;;;7.42;78.87;100409.09;1783068;80;21146;-67
2020/12/28 11:36:28;;;;;;;16.30;10.53;;;;;;;7.43;78.86;100404.30;1787321;80;21166;-66
2020/12/28 11:38:56;;;;;;;16.80;11.97;;;;;;;7.37;79.03;100405.59;1787104;80;21155;-65
2020/12/28 11:41:23;;;;;;;19.17;11.53;;;;;;;7.36;78.99;100397.75;1782304;80;21612;-66
2020/12/28 11:43:52;;;;;;;19.87;10.20;;;;;;;7.36;78.98;100393.83;1790465;80;21139;-66